createdAt,value
2023-08-10T15:25:06.650Z,22.38
2023-08-10T15:25:38.896Z,22.37
2023-08-10T15:26:11.117Z,22.33
2023-08-10T15:26:43.103Z,22.33
2023-08-10T15:27:14.968Z,22.37
2023-08-10T15:27:46.883Z,22.33
2023-08-10T15:28:18.698Z,22.37
2023-08-10T15:28:52.280Z,22.45
2023-08-10T15:29:24.165Z,22.52
2023-08-10T15:29:56.039Z,22.54
2023-08-10T15:30:28.086Z,22.50
2023-08-10T15:31:00.372Z,22.45
2023-08-10T15:31:32.320Z,22.48
2023-08-10T15:32:04.810Z,22.52
2023-08-10T15:32:36.922Z,22.53
2023-08-10T15:33:08.846Z,22.54
2023-08-10T15:33:40.810Z,22.58
2023-08-10T15:34:12.763Z,22.63
2023-08-10T15:34:44.673Z,22.64
2023-08-10T15:35:16.772Z,22.61
2023-08-10T15:35:48.639Z,22.56
2023-08-10T15:36:20.667Z,22.61
2023-08-10T15:36:52.492Z,22.63
2023-08-10T15:37:24.472Z,22.67
2023-08-10T15:37:56.875Z,22.70
2023-08-10T15:38:28.807Z,22.67
2023-08-10T15:39:00.653Z,22.68
2023-08-10T15:39:32.639Z,22.74
2023-08-10T15:40:05.304Z,22.71
2023-08-10T15:40:37.269Z,22.71
2023-08-10T15:41:09.204Z,22.72
2023-08-10T15:41:41.035Z,22.63
2023-08-10T15:42:14.060Z,22.64
2023-08-10T15:42:46.006Z,22.71
2023-08-10T15:43:18.319Z,22.72
2023-08-10T15:43:50.148Z,22.73
2023-08-10T15:44:22.064Z,22.80
2023-08-10T15:44:54.085Z,22.78
2023-08-10T15:45:26.001Z,22.76
2023-08-10T15:45:57.940Z,22.76
2023-08-10T15:46:29.939Z,22.65
2023-08-10T15:47:01.821Z,22.60
2023-08-10T15:47:33.756Z,22.57
2023-08-10T15:48:06.322Z,22.58
2023-08-10T15:48:38.334Z,22.70
2023-08-10T15:49:10.493Z,22.75
2023-08-10T15:49:42.431Z,22.76
2023-08-10T15:50:16.196Z,22.75
2023-08-10T15:50:48.949Z,22.68
2023-08-10T15:51:20.816Z,22.71
2023-08-10T15:51:52.662Z,22.68
2023-08-10T15:52:24.682Z,22.65
2023-08-10T15:52:56.625Z,22.68
2023-08-10T15:53:28.502Z,22.72
2023-08-10T15:54:00.400Z,22.77
2023-08-10T15:54:32.425Z,22.72
2023-08-10T15:55:04.641Z,22.69
2023-08-10T15:55:36.534Z,22.73
2023-08-10T15:56:08.589Z,22.80
2023-08-10T15:56:40.682Z,22.83
2023-08-10T15:57:12.521Z,22.78
2023-08-10T15:57:44.444Z,22.77
2023-08-10T15:58:16.370Z,22.65
2023-08-10T15:58:48.595Z,22.68
2023-08-10T15:59:20.723Z,22.68
2023-08-10T15:59:52.973Z,22.64
2023-08-10T16:00:24.851Z,22.71
2023-08-10T16:00:56.677Z,22.61
2023-08-10T16:01:28.546Z,22.62
2023-08-10T16:02:00.642Z,22.59
2023-08-10T16:02:32.594Z,22.64
2023-08-10T16:03:06.209Z,22.67
2023-08-10T16:03:38.881Z,22.68
2023-08-10T16:04:10.957Z,22.67
2023-08-10T16:04:42.828Z,22.75
2023-08-10T16:05:15.193Z,22.77
2023-08-10T16:05:47.665Z,22.77
2023-08-10T16:06:19.769Z,22.75
2023-08-10T16:06:51.998Z,22.68
2023-08-10T16:07:24.266Z,22.64
2023-08-10T16:07:56.116Z,22.60
2023-08-10T16:08:27.948Z,22.58
2023-08-10T16:09:00.475Z,22.63
2023-08-10T16:09:32.688Z,22.66
2023-08-10T16:10:08.552Z,22.56
2023-08-10T16:10:40.475Z,22.51
2023-08-10T16:11:12.593Z,22.48
2023-08-10T16:11:44.609Z,22.52
2023-08-10T16:12:16.532Z,22.58
2023-08-10T16:12:48.475Z,22.65
2023-08-10T16:13:20.331Z,22.62
2023-08-10T16:13:53.241Z,22.64
2023-08-10T16:14:25.372Z,22.63
2023-08-10T16:14:57.371Z,22.57
2023-08-10T16:15:30.072Z,22.65
2023-08-10T16:16:02.177Z,22.71
2023-08-10T16:16:34.819Z,22.75
2023-08-10T16:17:06.910Z,22.74
2023-08-10T16:17:39.017Z,22.69
2023-08-10T16:18:10.919Z,22.71
2023-08-10T16:18:43.390Z,22.74
2023-08-10T16:19:15.335Z,22.73
2023-08-10T16:19:47.251Z,22.69
2023-08-10T16:20:20.535Z,22.68
2023-08-10T16:20:52.534Z,22.68
2023-08-10T16:21:24.511Z,22.61
2023-08-10T16:21:56.434Z,22.67
2023-08-10T16:22:28.263Z,22.62
2023-08-10T16:23:00.150Z,22.65
2023-08-10T16:23:32.067Z,22.63
2023-08-10T16:24:04.227Z,22.65
2023-08-10T16:24:36.345Z,22.72
2023-08-10T16:25:11.187Z,22.68
2023-08-10T16:25:43.164Z,22.61
2023-08-10T16:26:15.076Z,22.68
2023-08-10T16:26:46.965Z,22.68
2023-08-10T16:27:22.605Z,22.66
2023-08-10T16:27:54.574Z,22.69
2023-08-10T16:28:27.022Z,22.61
2023-08-10T16:29:00.227Z,22.43
2023-08-10T16:29:32.110Z,22.34
2023-08-10T16:30:04.261Z,22.41
2023-08-10T16:30:37.642Z,22.48
2023-08-10T16:31:09.767Z,22.51
2023-08-10T16:31:41.720Z,22.62
2023-08-10T16:32:13.687Z,22.62
2023-08-10T16:32:45.775Z,22.68
2023-08-10T16:33:17.667Z,22.68
2023-08-10T16:33:49.629Z,22.50
2023-08-10T16:34:21.613Z,22.53
2023-08-10T16:34:54.286Z,22.61
2023-08-10T16:35:26.182Z,22.67
2023-08-10T16:35:58.091Z,22.58
2023-08-10T16:36:29.935Z,22.61
2023-08-10T16:37:02.970Z,22.59
2023-08-10T16:37:34.903Z,22.69
2023-08-10T16:38:06.801Z,22.67
2023-08-10T16:38:38.632Z,22.66
2023-08-10T16:39:10.553Z,22.70
2023-08-10T16:39:42.455Z,22.70
2023-08-10T16:40:14.861Z,22.69
2023-08-10T16:40:47.718Z,22.63
2023-08-10T16:41:19.630Z,22.68
2023-08-10T16:41:51.501Z,22.64
2023-08-10T16:42:23.437Z,22.60
2023-08-10T16:42:55.346Z,22.62
2023-08-10T16:43:29.203Z,22.68
2023-08-10T16:44:01.052Z,22.68
2023-08-10T16:44:32.920Z,22.68
2023-08-10T16:45:08.395Z,22.66
2023-08-10T16:45:40.745Z,22.59
2023-08-10T16:46:12.680Z,22.60
2023-08-10T16:46:44.589Z,22.55
2023-08-10T16:47:16.530Z,22.56
2023-08-10T16:47:48.520Z,22.57
2023-08-10T16:48:20.430Z,22.58
2023-08-10T16:48:52.303Z,22.50
2023-08-10T16:49:24.157Z,22.38
2023-08-10T16:50:05.156Z,22.32
2023-08-10T16:50:37.118Z,22.37
2023-08-10T16:51:09.441Z,22.39
2023-08-10T16:51:41.349Z,22.45
2023-08-10T16:52:13.497Z,22.48
2023-08-10T16:52:45.320Z,22.40
2023-08-10T16:53:17.210Z,22.45
2023-08-10T16:53:49.078Z,22.50
2023-08-10T16:54:21.675Z,22.49
2023-08-10T16:54:54.053Z,22.52
2023-08-10T16:55:26.068Z,22.48
2023-08-10T16:55:58.499Z,22.53
2023-08-10T16:56:30.377Z,22.54
2023-08-10T16:57:02.270Z,22.56
2023-08-10T16:57:34.245Z,22.52
2023-08-10T16:58:06.109Z,22.40
2023-08-10T16:58:37.973Z,22.40
2023-08-10T16:59:10.014Z,22.45
2023-08-10T16:59:42.237Z,22.48
2023-08-10T17:00:14.476Z,22.45
2023-08-10T17:00:46.348Z,22.46
2023-08-10T17:01:18.561Z,22.38
2023-08-10T17:01:50.458Z,22.37
2023-08-10T17:02:22.331Z,22.32
2023-08-10T17:02:54.644Z,22.33
2023-08-10T17:03:26.929Z,22.33
2023-08-10T17:03:58.925Z,22.28
2023-08-10T17:04:30.775Z,22.35
2023-08-10T17:05:03.174Z,22.24
2023-08-10T17:05:35.781Z,22.30
2023-08-10T17:06:07.648Z,22.26
2023-08-10T17:06:39.708Z,22.27
2023-08-10T17:07:11.583Z,22.21
2023-08-10T17:07:43.432Z,22.12
2023-08-10T17:08:15.314Z,22.12
2023-08-10T17:08:47.278Z,22.15
2023-08-10T17:09:19.292Z,22.19
2023-08-10T17:09:51.323Z,22.18
2023-08-10T17:10:23.251Z,22.17
2023-08-10T17:10:55.164Z,22.21
2023-08-10T17:11:27.025Z,22.18
2023-08-10T17:11:58.939Z,22.19
2023-08-10T17:12:30.812Z,22.21
2023-08-10T17:13:02.704Z,22.22
2023-08-10T17:13:36.275Z,22.17
2023-08-10T17:14:08.328Z,22.12
2023-08-10T17:14:40.239Z,22.07
2023-08-10T17:15:12.163Z,22.07
2023-08-10T17:15:44.111Z,22.04
2023-08-10T17:16:16.028Z,21.97
2023-08-10T17:16:48.159Z,21.93
2023-08-10T17:17:21.219Z,22.00
2023-08-10T17:17:53.065Z,22.01
2023-08-10T17:18:25.056Z,22.07
2023-08-10T17:18:57.014Z,22.04
2023-08-10T17:19:28.953Z,22.02
2023-08-10T17:20:00.818Z,21.96
2023-08-10T17:20:32.966Z,21.92
2023-08-10T17:21:04.791Z,21.90
2023-08-10T17:21:36.896Z,21.87
2023-08-10T17:22:09.025Z,21.92
2023-08-10T17:22:41.300Z,21.92
2023-08-10T17:23:13.176Z,21.85
2023-08-10T17:23:46.313Z,21.83
2023-08-10T17:24:18.223Z,21.87
2023-08-10T17:24:50.049Z,21.86
2023-08-10T17:25:23.745Z,21.95
2023-08-10T17:25:55.666Z,21.88
2023-08-10T17:26:27.520Z,21.85
2023-08-10T17:26:59.447Z,21.81
2023-08-10T17:27:31.379Z,21.81
2023-08-10T17:28:03.320Z,21.80
2023-08-10T17:28:35.295Z,21.77
2023-08-10T17:29:19.722Z,21.73
2023-08-10T17:29:53.532Z,21.71
2023-08-10T17:30:26.009Z,21.68
2023-08-10T17:30:57.904Z,21.69
2023-08-10T17:31:29.753Z,21.66
2023-08-10T17:32:01.911Z,21.65
2023-08-10T17:32:33.852Z,21.66
2023-08-10T17:33:05.998Z,21.64
2023-08-10T17:33:40.282Z,21.67
2023-08-10T17:34:12.206Z,21.63
2023-08-10T17:34:44.186Z,21.66
2023-08-10T17:35:16.698Z,21.66
2023-08-10T17:35:48.587Z,21.68
2023-08-10T17:36:20.454Z,21.67
2023-08-10T17:36:52.473Z,21.67
2023-08-10T17:37:28.499Z,21.71
2023-08-10T17:38:00.361Z,21.71
2023-08-10T17:38:32.176Z,21.69
2023-08-10T17:39:05.311Z,21.69
2023-08-10T17:39:37.671Z,21.62
2023-08-10T17:40:11.188Z,21.60
2023-08-10T17:40:43.171Z,21.56
2023-08-10T17:41:15.044Z,21.53
2023-08-10T17:41:48.384Z,21.59
2023-08-10T17:42:20.295Z,21.59
2023-08-10T17:42:52.568Z,21.61
2023-08-10T17:43:24.642Z,21.60
2023-08-10T17:43:56.570Z,21.60
2023-08-10T17:44:28.408Z,21.56
2023-08-10T17:45:00.448Z,21.50
2023-08-10T17:45:32.379Z,21.46
2023-08-10T17:46:04.359Z,21.50
2023-08-10T17:46:36.253Z,21.48
2023-08-10T17:47:08.233Z,21.45
2023-08-10T17:47:40.613Z,21.52
2023-08-10T17:48:12.492Z,21.46
2023-08-10T17:48:44.390Z,21.45
2023-08-10T17:49:16.282Z,21.47
2023-08-10T17:49:48.174Z,21.46
2023-08-10T17:50:20.338Z,21.48
2023-08-10T17:50:52.657Z,21.45
2023-08-10T17:51:25.576Z,21.47
2023-08-10T17:51:57.590Z,21.44
2023-08-10T17:52:29.472Z,21.40
2023-08-10T17:53:01.837Z,21.36
2023-08-10T17:53:35.033Z,21.42
2023-08-10T17:54:07.593Z,21.44
2023-08-10T17:54:39.678Z,21.38
2023-08-10T17:55:11.699Z,21.39
2023-08-10T17:55:43.622Z,21.34
2023-08-10T17:56:15.584Z,21.37
2023-08-10T17:56:47.571Z,21.34
2023-08-10T17:57:19.695Z,21.29
2023-08-10T17:57:51.674Z,21.29
2023-08-10T17:58:24.508Z,21.29
2023-08-10T17:58:56.419Z,21.29
2023-08-10T17:59:28.477Z,21.28
2023-08-10T18:00:07.784Z,21.24
2023-08-10T18:00:45.590Z,21.17
2023-08-10T18:01:17.681Z,21.15
2023-08-10T18:01:50.463Z,21.14
2023-08-10T18:02:22.579Z,21.18
2023-08-10T18:02:54.534Z,21.22
2023-08-10T18:03:26.806Z,21.19
2023-08-10T18:03:58.796Z,21.18
2023-08-10T18:04:30.742Z,21.21
2023-08-10T18:05:02.657Z,21.16
2023-08-10T18:05:34.528Z,21.14
2023-08-10T18:06:06.561Z,21.09
2023-08-10T18:06:38.475Z,21.07
2023-08-10T18:07:10.368Z,21.09
2023-08-10T18:07:42.240Z,21.13
2023-08-10T18:08:14.306Z,21.08
2023-08-10T18:08:46.237Z,21.08
2023-08-10T18:09:18.126Z,21.06
2023-08-10T18:09:52.659Z,21.02
2023-08-10T18:10:24.580Z,21.02
2023-08-10T18:10:56.558Z,20.99
2023-08-10T18:11:28.490Z,20.97
2023-08-10T18:12:00.337Z,20.90
2023-08-10T18:12:32.287Z,20.91
2023-08-10T18:13:04.597Z,20.88
2023-08-10T18:13:36.543Z,20.86
2023-08-10T18:14:10.651Z,20.83
2023-08-10T18:14:42.664Z,20.84
2023-08-10T18:15:14.626Z,20.84
2023-08-10T18:15:46.541Z,20.85
2023-08-10T18:16:19.159Z,20.81
2023-08-10T18:16:51.042Z,20.83
2023-08-10T18:17:23.676Z,20.85
2023-08-10T18:17:55.798Z,20.80
2023-08-10T18:18:28.745Z,20.79
2023-08-10T18:19:00.703Z,20.74
2023-08-10T18:19:32.565Z,20.70
2023-08-10T18:20:05.149Z,20.69
2023-08-10T18:20:37.086Z,20.66
2023-08-10T18:21:10.513Z,20.66
2023-08-10T18:21:42.539Z,20.63
2023-08-10T18:22:14.393Z,20.62
2023-08-10T18:22:46.299Z,20.62
2023-08-10T18:23:19.613Z,20.60
2023-08-10T18:23:51.531Z,20.55
2023-08-10T18:24:23.665Z,20.55
2023-08-10T18:24:56.544Z,20.60
2023-08-10T18:25:28.611Z,20.55
2023-08-10T18:26:01.298Z,20.53
2023-08-10T18:26:33.201Z,20.49
2023-08-10T18:27:09.481Z,20.46
2023-08-10T18:27:41.462Z,20.41
2023-08-10T18:28:13.635Z,20.39
2023-08-10T18:28:45.774Z,20.40
2023-08-10T18:29:17.658Z,20.37
2023-08-10T18:29:50.916Z,20.38
2023-08-10T18:30:22.915Z,20.34
2023-08-10T18:30:55.122Z,20.31
2023-08-10T18:31:27.502Z,20.26
2023-08-10T18:32:03.206Z,20.16
2023-08-10T18:32:35.281Z,20.14
2023-08-10T18:33:07.255Z,20.10
2023-08-10T18:33:39.154Z,20.02
2023-08-10T18:34:11.603Z,20.05
2023-08-10T18:34:44.476Z,20.01
2023-08-10T18:35:17.243Z,19.95
2023-08-10T18:35:49.290Z,19.98
2023-08-10T18:36:22.674Z,19.94
2023-08-10T18:36:56.886Z,19.95
2023-08-10T18:37:29.593Z,19.97
2023-08-10T18:38:01.512Z,19.92
2023-08-10T18:38:33.662Z,19.92
2023-08-10T18:39:05.661Z,19.86
2023-08-10T18:39:37.515Z,19.83
2023-08-10T18:40:10.120Z,19.76
2023-08-10T18:40:42.835Z,19.70
2023-08-10T18:41:15.639Z,19.67
2023-08-10T18:41:47.694Z,19.63
2023-08-10T18:42:19.870Z,19.58
2023-08-10T18:42:52.845Z,19.48
2023-08-10T18:43:24.829Z,19.47
2023-08-10T18:43:56.852Z,19.41
2023-08-10T18:44:28.882Z,19.39
2023-08-10T18:45:00.749Z,19.36
2023-08-10T18:45:32.787Z,19.35
2023-08-10T18:46:04.762Z,19.30
2023-08-10T18:46:36.963Z,19.25
2023-08-10T18:47:09.015Z,19.26
2023-08-10T18:47:44.400Z,19.25
2023-08-10T18:48:16.671Z,19.21
2023-08-10T18:48:48.671Z,19.20
2023-08-10T18:49:20.959Z,19.14
2023-08-10T18:49:53.667Z,19.16
2023-08-10T18:50:25.761Z,19.15
2023-08-10T18:50:58.887Z,19.17
2023-08-10T18:51:30.938Z,19.11
2023-08-10T18:52:02.981Z,19.09
2023-08-10T18:52:34.921Z,19.05
2023-08-10T18:53:08.730Z,19.02
2023-08-10T18:53:41.692Z,18.99
2023-08-10T18:54:13.642Z,18.95
2023-08-10T18:54:45.584Z,18.84
2023-08-10T18:55:18.711Z,18.82
2023-08-10T18:55:50.650Z,18.81
2023-08-10T18:56:22.506Z,18.77
2023-08-10T18:56:54.441Z,18.76
2023-08-10T18:57:26.506Z,18.75
2023-08-10T18:57:58.533Z,18.71
2023-08-10T18:58:30.491Z,18.71
2023-08-10T18:59:20.492Z,18.67
2023-08-10T18:59:52.550Z,18.69
2023-08-10T19:00:24.557Z,18.69
2023-08-10T19:00:57.468Z,18.66
2023-08-10T19:01:29.696Z,18.65
2023-08-10T19:02:01.620Z,18.66
2023-08-10T19:02:33.546Z,18.69
2023-08-10T19:03:05.738Z,18.72
2023-08-10T19:03:37.579Z,18.70
2023-08-10T19:04:09.767Z,18.69
2023-08-10T19:04:41.650Z,18.66
2023-08-10T19:05:13.739Z,18.67
2023-08-10T19:05:45.642Z,18.66
2023-08-10T19:06:17.545Z,18.63
2023-08-10T19:06:49.533Z,18.63
2023-08-10T19:07:21.404Z,18.60
2023-08-10T19:07:53.354Z,18.60
2023-08-10T19:08:25.550Z,18.56
2023-08-10T19:08:57.424Z,18.57
2023-08-10T19:09:29.266Z,18.55
2023-08-10T19:10:01.225Z,18.51
2023-08-10T19:10:33.155Z,18.51
2023-08-10T19:11:05.020Z,18.48
2023-08-10T19:11:36.840Z,18.51
2023-08-10T19:12:08.917Z,18.48
2023-08-10T19:12:41.041Z,18.43
2023-08-10T19:13:12.830Z,18.40
2023-08-10T19:13:44.709Z,18.38
2023-08-10T19:14:16.620Z,18.39
2023-08-10T19:14:49.115Z,18.38
2023-08-10T19:15:21.130Z,18.41
2023-08-10T19:16:02.728Z,18.38
2023-08-10T19:16:34.702Z,18.33
2023-08-10T19:17:06.824Z,18.31
2023-08-10T19:17:40.575Z,18.29
2023-08-10T19:18:12.478Z,18.36
2023-08-10T19:18:45.954Z,18.33
2023-08-10T19:19:17.941Z,18.37
2023-08-10T19:19:50.042Z,18.36
2023-08-10T19:20:21.887Z,18.40
2023-08-10T19:20:53.860Z,18.38
2023-08-10T19:21:25.673Z,18.36
2023-08-10T19:21:58.194Z,18.32
2023-08-10T19:22:30.118Z,18.28
2023-08-10T19:23:01.951Z,18.28
2023-08-10T19:23:34.455Z,18.29
2023-08-10T19:24:07.038Z,18.26
2023-08-10T19:24:39.248Z,18.25
2023-08-10T19:25:11.265Z,18.20
2023-08-10T19:25:43.184Z,18.20
2023-08-10T19:26:15.109Z,18.17
2023-08-10T19:26:46.971Z,18.19
2023-08-10T19:27:22.032Z,18.14
2023-08-10T19:27:53.969Z,18.13
2023-08-10T19:28:25.977Z,18.16
2023-08-10T19:28:58.023Z,18.09
2023-08-10T19:29:31.217Z,18.14
2023-08-10T19:30:07.102Z,18.16
2023-08-10T19:30:39.255Z,18.12
2023-08-10T19:31:11.163Z,18.13
2023-08-10T19:31:43.125Z,18.15
2023-08-10T19:32:15.130Z,18.11
2023-08-10T19:32:49.160Z,18.11
2023-08-10T19:33:21.114Z,18.07
2023-08-10T19:33:53.122Z,17.99
2023-08-10T19:34:25.051Z,17.99
2023-08-10T19:34:56.938Z,17.97
2023-08-10T19:35:29.561Z,18.00
2023-08-10T19:36:01.660Z,17.90
2023-08-10T19:36:33.562Z,17.93
2023-08-10T19:37:06.495Z,17.89
2023-08-10T19:37:38.326Z,17.93
2023-08-10T19:38:10.330Z,17.90
2023-08-10T19:38:42.418Z,17.87
2023-08-10T19:39:14.460Z,17.87
2023-08-10T19:39:47.420Z,17.84
2023-08-10T19:40:19.380Z,17.83
2023-08-10T19:40:51.311Z,17.87
2023-08-10T19:41:23.194Z,17.79
2023-08-10T19:41:55.053Z,17.81
2023-08-10T19:42:28.292Z,17.77
2023-08-10T19:43:00.180Z,17.69
2023-08-10T19:43:32.046Z,17.68
2023-08-10T19:44:05.423Z,17.65
2023-08-10T19:44:37.298Z,17.66
2023-08-10T19:45:10.594Z,17.66
2023-08-10T19:45:42.491Z,17.66
2023-08-10T19:46:14.496Z,17.61
2023-08-10T19:46:46.422Z,17.48
2023-08-10T19:47:21.796Z,17.53
2023-08-10T19:47:56.834Z,17.47
2023-08-10T19:48:28.854Z,17.46
2023-08-10T19:49:00.757Z,17.46
2023-08-10T19:49:32.716Z,17.42
2023-08-10T19:50:05.918Z,17.39
2023-08-10T19:50:37.770Z,17.40
2023-08-10T19:51:09.629Z,17.34
2023-08-10T19:51:41.906Z,17.33
2023-08-10T19:52:13.755Z,17.35
2023-08-10T19:52:45.688Z,17.37
2023-08-10T19:53:18.265Z,17.37
2023-08-10T19:53:50.342Z,17.35
2023-08-10T19:54:22.284Z,17.30
2023-08-10T19:54:54.157Z,17.35
2023-08-10T19:55:26.006Z,17.32
2023-08-10T19:55:57.930Z,17.35
2023-08-10T19:56:30.145Z,17.33
2023-08-10T19:57:04.746Z,17.31
2023-08-10T19:57:36.882Z,17.30
2023-08-10T19:58:10.136Z,17.32
2023-08-10T19:58:41.981Z,17.28
2023-08-10T19:59:13.922Z,17.29
2023-08-10T19:59:45.894Z,17.30
2023-08-10T20:00:17.948Z,17.24
2023-08-10T20:00:49.910Z,17.20
2023-08-10T20:01:22.297Z,17.17
2023-08-10T20:01:54.200Z,17.18
2023-08-10T20:02:26.119Z,17.15
2023-08-10T20:02:58.232Z,17.17
2023-08-10T20:03:31.753Z,17.18
2023-08-10T20:04:03.890Z,17.18
2023-08-10T20:04:35.770Z,17.20
2023-08-10T20:05:08.343Z,17.20
2023-08-10T20:05:40.201Z,17.15
2023-08-10T20:06:12.122Z,17.14
2023-08-10T20:06:44.220Z,17.12
2023-08-10T20:07:16.067Z,17.09
2023-08-10T20:07:48.537Z,17.12
2023-08-10T20:08:20.506Z,17.10
2023-08-10T20:08:52.398Z,17.06
2023-08-10T20:09:24.196Z,17.07
2023-08-10T20:09:56.045Z,17.05
2023-08-10T20:10:28.542Z,17.07
2023-08-10T20:11:00.500Z,17.08
2023-08-10T20:11:32.613Z,17.06
2023-08-10T20:12:05.418Z,17.01
2023-08-10T20:12:38.137Z,16.98
2023-08-10T20:13:10.001Z,16.96
2023-08-10T20:13:41.847Z,16.98
2023-08-10T20:14:13.681Z,16.95
2023-08-10T20:14:45.612Z,16.94
2023-08-10T20:15:17.661Z,16.93
2023-08-10T20:15:49.590Z,16.95
2023-08-10T20:16:21.718Z,16.91
2023-08-10T20:16:53.836Z,16.91
2023-08-10T20:17:26.109Z,16.86
2023-08-10T20:18:01.847Z,16.89
2023-08-10T20:18:33.902Z,16.92
2023-08-10T20:19:05.811Z,16.95
2023-08-10T20:19:38.330Z,16.97
2023-08-10T20:20:13.623Z,16.95
2023-08-10T20:20:45.996Z,16.93
2023-08-10T20:21:17.864Z,16.92
2023-08-10T20:21:49.677Z,16.93
2023-08-10T20:22:22.615Z,16.94
2023-08-10T20:22:58.296Z,16.92
2023-08-10T20:23:32.296Z,16.86
2023-08-10T20:24:07.467Z,16.83
2023-08-10T20:24:39.559Z,16.81
2023-08-10T20:25:11.430Z,16.81
2023-08-10T20:25:43.514Z,16.81
2023-08-10T20:26:15.415Z,16.79
2023-08-10T20:26:47.306Z,16.81
2023-08-10T20:27:19.546Z,16.79
2023-08-10T20:27:51.998Z,16.80
2023-08-10T20:28:23.864Z,16.81
2023-08-10T20:28:55.751Z,16.84
2023-08-10T20:29:27.689Z,16.79
2023-08-10T20:29:59.653Z,16.75
2023-08-10T20:30:37.051Z,16.76
2023-08-10T20:31:08.963Z,16.79
2023-08-10T20:31:40.844Z,16.77
2023-08-10T20:32:14.132Z,16.72
2023-08-10T20:32:47.489Z,16.71
2023-08-10T20:33:19.486Z,16.68
2023-08-10T20:33:52.335Z,16.65
2023-08-10T20:34:24.654Z,16.59
2023-08-10T20:34:56.639Z,16.50
2023-08-10T20:35:30.058Z,16.52
2023-08-10T20:36:01.956Z,16.50
2023-08-10T20:36:33.811Z,16.50
2023-08-10T20:37:06.673Z,16.49
2023-08-10T20:37:38.592Z,16.45
2023-08-10T20:38:10.777Z,16.41
2023-08-10T20:38:42.894Z,16.42
2023-08-10T20:39:15.205Z,16.42
2023-08-10T20:39:47.049Z,16.43
2023-08-10T20:40:19.890Z,16.42
2023-08-10T20:40:51.846Z,16.43
2023-08-10T20:41:23.744Z,16.39
2023-08-10T20:41:55.628Z,16.35
2023-08-10T20:42:27.552Z,16.37
2023-08-10T20:42:59.406Z,16.34
2023-08-10T20:43:31.806Z,16.32
2023-08-10T20:44:03.934Z,16.27
2023-08-10T20:44:36.221Z,16.28
2023-08-10T20:45:08.786Z,16.19
2023-08-10T20:45:43.428Z,16.20
2023-08-10T20:46:23.883Z,16.18
2023-08-10T20:46:57.263Z,16.13
2023-08-10T20:47:29.176Z,16.12
2023-08-10T20:48:01.566Z,16.09
2023-08-10T20:48:33.519Z,16.04
2023-08-10T20:49:05.918Z,16.03
2023-08-10T20:49:37.792Z,16.01
2023-08-10T20:50:10.333Z,16.01
2023-08-10T20:50:42.228Z,15.95
2023-08-10T20:51:15.034Z,15.96
2023-08-10T20:51:46.971Z,15.94
2023-08-10T20:52:18.776Z,15.90
2023-08-10T20:52:50.565Z,15.88
2023-08-10T20:53:22.654Z,15.87
2023-08-10T20:53:54.686Z,15.87
2023-08-10T20:54:26.586Z,15.82
2023-08-10T20:54:58.789Z,15.84
2023-08-10T20:55:30.704Z,15.82
2023-08-10T20:56:06.413Z,15.80
2023-08-10T20:56:38.302Z,15.75
2023-08-10T20:57:10.401Z,15.70
2023-08-10T20:57:42.578Z,15.68
2023-08-10T20:58:14.539Z,15.66
2023-08-10T20:58:47.449Z,15.64
2023-08-10T20:59:19.376Z,15.68
2023-08-10T20:59:51.420Z,15.69
2023-08-10T21:00:24.829Z,15.70
2023-08-10T21:00:57.061Z,15.70
2023-08-10T21:01:29.106Z,15.70
2023-08-10T21:02:01.040Z,15.68
2023-08-10T21:02:33.674Z,15.66
2023-08-10T21:03:06.207Z,15.68
2023-08-10T21:03:39.218Z,15.67
2023-08-10T21:04:11.156Z,15.59
2023-08-10T21:04:43.277Z,15.59
2023-08-10T21:05:15.080Z,15.57
2023-08-10T21:05:46.866Z,15.60
2023-08-10T21:06:18.616Z,15.62
2023-08-10T21:06:50.362Z,15.61
2023-08-10T21:07:22.164Z,15.55
2023-08-10T21:07:54.042Z,15.56
2023-08-10T21:08:25.924Z,15.55
2023-08-10T21:08:57.786Z,15.54
2023-08-10T21:09:29.890Z,15.48
2023-08-10T21:10:01.653Z,15.47
2023-08-10T21:10:34.757Z,15.41
2023-08-10T21:11:07.008Z,15.40
2023-08-10T21:11:38.869Z,15.43
2023-08-10T21:12:10.655Z,15.43
2023-08-10T21:12:42.546Z,15.45
2023-08-10T21:13:14.425Z,15.47
2023-08-10T21:13:48.193Z,15.41
2023-08-10T21:14:19.976Z,15.44
2023-08-10T21:14:51.852Z,15.44
2023-08-10T21:15:23.758Z,15.42
2023-08-10T21:15:55.522Z,15.43
2023-08-10T21:16:27.639Z,15.41
2023-08-10T21:16:59.387Z,15.40
2023-08-10T21:17:31.218Z,15.40
2023-08-10T21:18:03.167Z,15.38
2023-08-10T21:18:35.499Z,15.31
2023-08-10T21:19:08.938Z,15.29
2023-08-10T21:19:40.721Z,15.28
2023-08-10T21:20:12.763Z,15.28
2023-08-10T21:20:45.542Z,15.22
2023-08-10T21:21:17.918Z,15.17
2023-08-10T21:21:50.834Z,15.13
2023-08-10T21:22:23.508Z,15.08
2023-08-10T21:22:55.379Z,15.04
2023-08-10T21:23:27.809Z,15.08
2023-08-10T21:24:00.045Z,15.12
2023-08-10T21:24:32.367Z,15.19
2023-08-10T21:25:06.369Z,15.17
2023-08-10T21:25:39.191Z,15.16
2023-08-10T21:26:11.564Z,15.20
2023-08-10T21:26:43.709Z,15.18
2023-08-10T21:27:15.719Z,15.20
2023-08-10T21:27:48.346Z,15.17
2023-08-10T21:28:20.371Z,15.16
2023-08-10T21:28:52.284Z,15.14
2023-08-10T21:29:24.517Z,15.13
2023-08-10T21:29:56.367Z,15.16
2023-08-10T21:30:28.413Z,15.10
2023-08-10T21:31:00.340Z,15.08
2023-08-10T21:31:32.401Z,15.00
2023-08-10T21:32:04.557Z,15.01
2023-08-10T21:32:38.007Z,15.03
2023-08-10T21:33:10.128Z,15.04
2023-08-10T21:33:41.933Z,15.06
2023-08-10T21:34:13.696Z,15.07
2023-08-10T21:34:45.471Z,15.07
2023-08-10T21:35:17.497Z,15.06
2023-08-10T21:35:49.271Z,15.01
2023-08-10T21:36:21.796Z,14.96
2023-08-10T21:36:55.362Z,14.93
2023-08-10T21:37:27.139Z,14.88
2023-08-10T21:37:58.896Z,14.88
2023-08-10T21:38:30.650Z,14.84
2023-08-10T21:39:02.690Z,14.83
2023-08-10T21:39:34.452Z,14.82
2023-08-10T21:40:07.956Z,14.83
2023-08-10T21:40:40.136Z,14.86
2023-08-10T21:41:11.927Z,14.87
2023-08-10T21:41:44.658Z,14.90
2023-08-10T21:42:16.643Z,14.87
2023-08-10T21:42:48.475Z,14.85
2023-08-10T21:43:20.258Z,14.91
2023-08-10T21:43:52.125Z,14.93
2023-08-10T21:44:24.007Z,14.91
2023-08-10T21:44:55.770Z,14.89
2023-08-10T21:45:27.605Z,14.89
2023-08-10T21:45:59.466Z,14.90
2023-08-10T21:46:31.267Z,14.82
2023-08-10T21:47:03.113Z,14.85
2023-08-10T21:47:35.040Z,14.82
2023-08-10T21:48:07.882Z,14.76
2023-08-10T21:48:39.823Z,14.73
2023-08-10T21:49:11.719Z,14.75
2023-08-10T21:49:43.502Z,14.73
2023-08-10T21:50:15.464Z,14.64
2023-08-10T21:50:47.276Z,14.67
2023-08-10T21:51:19.780Z,14.63
2023-08-10T21:51:51.583Z,14.68
2023-08-10T21:52:23.343Z,14.65
2023-08-10T21:52:55.109Z,14.63
2023-08-10T21:53:26.854Z,14.56
2023-08-10T21:53:58.857Z,14.61
2023-08-10T21:54:30.760Z,14.65
2023-08-10T21:55:02.796Z,14.62
2023-08-10T21:55:35.739Z,14.55
2023-08-10T21:56:07.605Z,14.54
2023-08-10T21:56:39.534Z,14.57
2023-08-10T21:57:11.438Z,14.55
2023-08-10T21:57:43.726Z,14.47
2023-08-10T21:58:15.854Z,14.50
2023-08-10T21:58:47.934Z,14.51
2023-08-10T21:59:19.807Z,14.50
2023-08-10T21:59:51.614Z,14.51
2023-08-10T22:00:23.411Z,14.51
2023-08-10T22:00:55.242Z,14.49
2023-08-10T22:01:27.098Z,14.47
2023-08-10T22:01:59.663Z,14.49
2023-08-10T22:02:31.534Z,14.49
2023-08-10T22:03:03.660Z,14.50
2023-08-10T22:03:37.285Z,14.48
2023-08-10T22:04:09.051Z,14.48
2023-08-10T22:04:40.922Z,14.48
2023-08-10T22:05:12.816Z,14.52
2023-08-10T22:05:48.190Z,14.51
2023-08-10T22:06:20.038Z,14.46
2023-08-10T22:06:51.820Z,14.45
2023-08-10T22:07:23.599Z,14.42
2023-08-10T22:07:55.356Z,14.39
2023-08-10T22:08:27.217Z,14.41
2023-08-10T22:08:59.013Z,14.39
2023-08-10T22:09:30.808Z,14.39
2023-08-10T22:10:03.358Z,14.42
2023-08-10T22:10:35.310Z,14.38
2023-08-10T22:11:07.559Z,14.32
2023-08-10T22:11:39.728Z,14.34
2023-08-10T22:12:12.739Z,14.37
2023-08-10T22:12:44.547Z,14.35
2023-08-10T22:13:16.553Z,14.39
2023-08-10T22:13:48.345Z,14.44
2023-08-10T22:14:20.257Z,14.44
2023-08-10T22:14:56.133Z,14.40
2023-08-10T22:15:29.513Z,14.44
2023-08-10T22:16:01.364Z,14.45
2023-08-10T22:16:35.884Z,14.44
2023-08-10T22:17:07.788Z,14.42
2023-08-10T22:17:39.679Z,14.43
2023-08-10T22:18:12.074Z,14.42
2023-08-10T22:18:43.929Z,14.39
2023-08-10T22:19:15.752Z,14.38
2023-08-10T22:19:47.856Z,14.36
2023-08-10T22:20:19.808Z,14.36
2023-08-10T22:20:52.574Z,14.34
2023-08-10T22:21:24.425Z,14.36